sensor_id;sensor_type;location;lat;lon;timestamp;noise_LAeq;noise_LA_min;noise_LA_max;noise_LA01;noise_LA95
77135;Laerm;48586;50.122;18.972;2023-07-13T00:01:16;47.70;44.85;59.23;;
77135;Laerm;48586;50.122;18.972;2023-07-13T00:03:23;52.09;45.21;62.38;;
77135;Laerm;48586;50.122;18.972;2023-07-13T00:05:28;55.33;51.36;65.02;;
77135;Laerm;48586;50.122;18.972;2023-07-13T00:07:33;52.75;50.05;60.88;;
77135;Laerm;48586;50.122;18.972;2023-07-13T00:09:37;58.75;52.91;63.42;;
77135;Laerm;48586;50.122;18.972;2023-07-13T00:11:44;61.63;55.17;68.21;;
77135;Laerm;48586;50.122;18.972;2023-07-13T00:13:49;62.62;53.60;77.44;;
77135;Laerm;48586;50.122;18.972;2023-07-13T00:15:53;53.09;49.34;65.10;;
77135;Laerm;48586;50.122;18.972;2023-07-13T00:17:58;53.14;48.27;59.42;;
77135;Laerm;48586;50.122;18.972;2023-07-13T00:20:06;50.73;44.11;60.69;;
77135;Laerm;48586;50.122;18.972;2023-07-13T00:22:11;46.44;41.78;61.89;;
77135;Laerm;48586;50.122;18.972;2023-07-13T00:24:18;44.75;40.49;61.14;;
77135;Laerm;48586;50.122;18.972;2023-07-13T00:26:24;44.25;38.74;60.10;;
77135;Laerm;48586;50.122;18.972;2023-07-13T00:28:29;44.61;37.20;57.35;;
77135;Laerm;48586;50.122;18.972;2023-07-13T00:30:31;44.12;36.69;56.68;;
77135;Laerm;48586;50.122;18.972;2023-07-13T00:32:35;40.97;35.62;54.09;;
77135;Laerm;48586;50.122;18.972;2023-07-13T00:34:39;44.11;35.48;55.74;;
77135;Laerm;48586;50.122;18.972;2023-07-13T00:36:48;39.13;34.99;56.96;;
77135;Laerm;48586;50.122;18.972;2023-07-13T00:38:52;38.39;34.34;53.77;;
77135;Laerm;48586;50.122;18.972;2023-07-13T00:40:56;37.75;34.63;54.14;;
77135;Laerm;48586;50.122;18.972;2023-07-13T00:43:01;37.64;34.47;54.04;;
77135;Laerm;48586;50.122;18.972;2023-07-13T00:47:46;36.67;34.39;49.06;;
77135;Laerm;48586;50.122;18.972;2023-07-13T00:49:52;36.42;34.06;48.26;;
77135;Laerm;48586;50.122;18.972;2023-07-13T00:52:03;36.26;34.23;46.93;;
77135;Laerm;48586;50.122;18.972;2023-07-13T00:54:13;41.38;34.38;50.82;;
77135;Laerm;48586;50.122;18.972;2023-07-13T00:56:19;36.08;33.82;47.25;;
77135;Laerm;48586;50.122;18.972;2023-07-13T00:58:25;36.43;33.83;47.18;;
77135;Laerm;48586;50.122;18.972;2023-07-13T01:00:35;40.96;34.43;50.86;;
77135;Laerm;48586;50.122;18.972;2023-07-13T01:02:44;42.02;34.17;53.90;;
77135;Laerm;48586;50.122;18.972;2023-07-13T01:04:49;36.32;33.94;46.13;;
77135;Laerm;48586;50.122;18.972;2023-07-13T01:06:54;36.50;34.06;49.71;;
77135;Laerm;48586;50.122;18.972;2023-07-13T01:09:03;38.63;34.20;64.44;;
77135;Laerm;48586;50.122;18.972;2023-07-13T01:11:09;36.36;33.99;50.69;;
77135;Laerm;48586;50.122;18.972;2023-07-13T01:13:10;44.36;34.63;56.10;;
77135;Laerm;48586;50.122;18.972;2023-07-13T01:15:34;50.58;41.51;58.49;;
77135;Laerm;48586;50.122;18.972;2023-07-13T01:17:39;41.94;34.42;56.85;;
77135;Laerm;48586;50.122;18.972;2023-07-13T01:19:45;43.71;34.63;59.21;;
77135;Laerm;48586;50.122;18.972;2023-07-13T01:21:53;38.39;34.46;57.21;;
77135;Laerm;48586;50.122;18.972;2023-07-13T01:23:58;43.34;34.35;57.90;;
77135;Laerm;48586;50.122;18.972;2023-07-13T01:26:03;37.20;34.10;50.48;;
77135;Laerm;48586;50.122;18.972;2023-07-13T01:28:09;36.84;34.26;48.92;;
77135;Laerm;48586;50.122;18.972;2023-07-13T01:30:13;36.35;33.89;46.25;;
77135;Laerm;48586;50.122;18.972;2023-07-13T01:32:21;39.83;34.19;51.27;;
77135;Laerm;48586;50.122;18.972;2023-07-13T01:34:29;36.65;34.17;47.52;;
77135;Laerm;48586;50.122;18.972;2023-07-13T01:36:33;41.33;34.47;49.84;;
77135;Laerm;48586;50.122;18.972;2023-07-13T01:38:41;35.92;33.91;49.20;;
77135;Laerm;48586;50.122;18.972;2023-07-13T01:40:46;35.94;34.05;52.08;;
77135;Laerm;48586;50.122;18.972;2023-07-13T01:42:48;37.23;34.09;49.98;;
77135;Laerm;48586;50.122;18.972;2023-07-13T01:44:55;36.96;34.02;57.75;;
77135;Laerm;48586;50.122;18.972;2023-07-13T01:46:58;44.30;35.54;66.95;;
77135;Laerm;48586;50.122;18.972;2023-07-13T01:49:02;40.82;34.71;61.90;;
77135;Laerm;48586;50.122;18.972;2023-07-13T01:51:04;43.18;34.57;54.14;;
77135;Laerm;48586;50.122;18.972;2023-07-13T01:53:09;43.09;34.02;57.04;;
77135;Laerm;48586;50.122;18.972;2023-07-13T01:55:17;36.15;34.24;50.55;;
77135;Laerm;48586;50.122;18.972;2023-07-13T01:57:21;35.99;34.14;47.35;;
77135;Laerm;48586;50.122;18.972;2023-07-13T01:59:27;37.40;33.96;61.88;;
77135;Laerm;48586;50.122;18.972;2023-07-13T02:01:31;36.26;33.82;49.63;;
77135;Laerm;48586;50.122;18.972;2023-07-13T02:03:36;44.25;33.74;56.97;;
77135;Laerm;48586;50.122;18.972;2023-07-13T02:05:41;38.53;33.94;48.20;;
77135;Laerm;48586;50.122;18.972;2023-07-13T02:07:46;39.84;34.21;53.19;;
77135;Laerm;48586;50.122;18.972;2023-07-13T02:09:48;42.11;33.92;53.79;;
77135;Laerm;48586;50.122;18.972;2023-07-13T02:11:56;36.21;33.97;50.44;;
77135;Laerm;48586;50.122;18.972;2023-07-13T02:14:05;35.73;34.06;48.69;;
77135;Laerm;48586;50.122;18.972;2023-07-13T02:16:10;45.80;34.43;57.88;;
77135;Laerm;48586;50.122;18.972;2023-07-13T02:18:15;44.84;34.28;57.41;;
77135;Laerm;48586;50.122;18.972;2023-07-13T02:20:19;39.70;34.20;50.55;;
77135;Laerm;48586;50.122;18.972;2023-07-13T02:22:24;40.12;34.43;53.44;;
77135;Laerm;48586;50.122;18.972;2023-07-13T02:24:33;42.48;34.89;53.89;;
77135;Laerm;48586;50.122;18.972;2023-07-13T02:26:40;39.44;34.63;49.94;;
77135;Laerm;48586;50.122;18.972;2023-07-13T02:28:47;37.74;34.56;48.99;;
77135;Laerm;48586;50.122;18.972;2023-07-13T02:30:49;43.64;34.65;57.20;;
77135;Laerm;48586;50.122;18.972;2023-07-13T02:32:55;43.42;34.41;55.05;;
77135;Laerm;48586;50.122;18.972;2023-07-13T02:34:56;36.40;34.59;48.26;;
77135;Laerm;48586;50.122;18.972;2023-07-13T02:37:02;41.35;34.85;54.76;;
77135;Laerm;48586;50.122;18.972;2023-07-13T02:39:05;37.66;34.95;45.09;;
77135;Laerm;48586;50.122;18.972;2023-07-13T02:41:11;38.74;34.84;49.74;;
77135;Laerm;48586;50.122;18.972;2023-07-13T02:43:16;44.39;37.05;55.96;;
77135;Laerm;48586;50.122;18.972;2023-07-13T02:45:25;40.78;36.00;50.32;;
77135;Laerm;48586;50.122;18.972;2023-07-13T02:47:31;41.29;35.44;51.27;;
77135;Laerm;48586;50.122;18.972;2023-07-13T02:49:36;38.61;35.34;48.77;;
77135;Laerm;48586;50.122;18.972;2023-07-13T02:51:40;38.55;35.83;45.79;;
77135;Laerm;48586;50.122;18.972;2023-07-13T02:53:45;41.73;35.36;49.89;;
77135;Laerm;48586;50.122;18.972;2023-07-13T02:55:50;45.86;35.88;55.11;;
77135;Laerm;48586;50.122;18.972;2023-07-13T02:57:54;45.24;35.76;54.37;;
77135;Laerm;48586;50.122;18.972;2023-07-13T02:59:59;43.26;36.37;59.84;;
77135;Laerm;48586;50.122;18.972;2023-07-13T03:02:09;42.42;37.52;49.44;;
77135;Laerm;48586;50.122;18.972;2023-07-13T03:04:14;45.07;35.67;55.03;;
77135;Laerm;48586;50.122;18.972;2023-07-13T03:06:23;38.06;35.56;46.25;;
77135;Laerm;48586;50.122;18.972;2023-07-13T03:08:29;47.06;36.49;58.98;;
77135;Laerm;48586;50.122;18.972;2023-07-13T03:10:33;46.75;37.32;55.19;;
77135;Laerm;48586;50.122;18.972;2023-07-13T03:12:40;46.88;39.10;55.31;;
77135;Laerm;48586;50.122;18.972;2023-07-13T03:14:53;54.46;39.65;75.60;;
77135;Laerm;48586;50.122;18.972;2023-07-13T03:16:57;46.24;38.16;55.13;;
77135;Laerm;48586;50.122;18.972;2023-07-13T03:19:08;44.87;38.49;53.05;;
77135;Laerm;48586;50.122;18.972;2023-07-13T03:21:13;48.67;39.01;56.57;;
77135;Laerm;48586;50.122;18.972;2023-07-13T03:23:17;47.84;38.55;57.36;;
77135;Laerm;48586;50.122;18.972;2023-07-13T03:25:21;47.56;39.10;61.22;;
77135;Laerm;48586;50.122;18.972;2023-07-13T03:27:26;47.57;38.39;56.60;;
77135;Laerm;48586;50.122;18.972;2023-07-13T03:29:31;48.53;41.26;55.00;;
77135;Laerm;48586;50.122;18.972;2023-07-13T03:31:36;54.41;38.99;82.17;;
77135;Laerm;48586;50.122;18.972;2023-07-13T03:33:41;47.13;40.41;55.82;;
77135;Laerm;48586;50.122;18.972;2023-07-13T03:35:46;48.14;41.18;55.01;;
77135;Laerm;48586;50.122;18.972;2023-07-13T03:37:50;49.58;39.71;56.94;;
77135;Laerm;48586;50.122;18.972;2023-07-13T03:39:56;48.43;38.70;56.92;;
77135;Laerm;48586;50.122;18.972;2023-07-13T03:42:01;49.92;39.53;58.85;;
77135;Laerm;48586;50.122;18.972;2023-07-13T03:44:05;49.85;39.55;59.62;;
77135;Laerm;48586;50.122;18.972;2023-07-13T03:46:10;50.41;40.21;58.79;;
77135;Laerm;48586;50.122;18.972;2023-07-13T03:48:15;46.22;37.57;54.97;;
77135;Laerm;48586;50.122;18.972;2023-07-13T03:50:16;43.85;36.43;53.26;;
77135;Laerm;48586;50.122;18.972;2023-07-13T03:52:24;46.13;37.74;54.49;;
77135;Laerm;48586;50.122;18.972;2023-07-13T03:54:28;41.97;36.33;50.46;;
77135;Laerm;48586;50.122;18.972;2023-07-13T03:56:35;43.30;36.31;53.53;;
77135;Laerm;48586;50.122;18.972;2023-07-13T03:58:44;42.09;35.83;52.74;;
77135;Laerm;48586;50.122;18.972;2023-07-13T04:00:51;44.77;36.43;55.29;;
77135;Laerm;48586;50.122;18.972;2023-07-13T04:02:53;43.48;36.05;55.51;;
77135;Laerm;48586;50.122;18.972;2023-07-13T04:04:59;47.86;35.94;56.83;;
77135;Laerm;48586;50.122;18.972;2023-07-13T04:07:03;47.29;36.02;55.40;;
77135;Laerm;48586;50.122;18.972;2023-07-13T04:09:10;47.77;36.19;70.15;;
77135;Laerm;48586;50.122;18.972;2023-07-13T04:11:16;49.13;39.99;64.39;;
77135;Laerm;48586;50.122;18.972;2023-07-13T04:13:18;45.45;36.35;55.42;;
77135;Laerm;48586;50.122;18.972;2023-07-13T04:15:22;49.25;40.59;62.06;;
77135;Laerm;48586;50.122;18.972;2023-07-13T04:17:27;49.82;41.82;57.74;;
77135;Laerm;48586;50.122;18.972;2023-07-13T04:19:31;49.47;37.23;66.66;;
77135;Laerm;48586;50.122;18.972;2023-07-13T04:21:35;49.14;36.00;55.98;;
77135;Laerm;48586;50.122;18.972;2023-07-13T04:23:41;48.39;37.71;56.57;;
77135;Laerm;48586;50.122;18.972;2023-07-13T04:25:49;47.64;39.35;56.59;;
77135;Laerm;48586;50.122;18.972;2023-07-13T04:27:54;47.95;37.18;59.93;;
77135;Laerm;48586;50.122;18.972;2023-07-13T04:29:59;47.74;40.04;55.89;;
77135;Laerm;48586;50.122;18.972;2023-07-13T04:32:04;47.92;40.84;55.14;;
77135;Laerm;48586;50.122;18.972;2023-07-13T04:34:08;46.58;38.28;53.03;;
77135;Laerm;48586;50.122;18.972;2023-07-13T04:36:13;47.11;38.59;56.88;;
77135;Laerm;48586;50.122;18.972;2023-07-13T04:38:17;47.86;38.99;54.11;;
77135;Laerm;48586;50.122;18.972;2023-07-13T04:40:22;46.67;38.14;56.09;;
77135;Laerm;48586;50.122;18.972;2023-07-13T04:42:29;47.61;39.27;54.77;;
77135;Laerm;48586;50.122;18.972;2023-07-13T04:44:35;47.71;35.82;55.59;;
77135;Laerm;48586;50.122;18.972;2023-07-13T04:46:39;48.33;41.04;53.57;;
77135;Laerm;48586;50.122;18.972;2023-07-13T04:48:44;47.41;37.52;54.89;;
77135;Laerm;48586;50.122;18.972;2023-07-13T04:50:54;47.86;37.62;65.14;;
77135;Laerm;48586;50.122;18.972;2023-07-13T04:52:58;47.30;36.68;57.54;;
77135;Laerm;48586;50.122;18.972;2023-07-13T04:55:05;48.96;37.97;56.83;;
77135;Laerm;48586;50.122;18.972;2023-07-13T04:57:10;47.57;37.30;55.15;;
77135;Laerm;48586;50.122;18.972;2023-07-13T04:59:18;49.05;41.01;57.70;;
77135;Laerm;48586;50.122;18.972;2023-07-13T05:01:23;48.23;38.14;71.03;;
77135;Laerm;48586;50.122;18.972;2023-07-13T05:03:28;53.13;39.15;75.15;;
77135;Laerm;48586;50.122;18.972;2023-07-13T05:05:32;47.86;38.31;59.77;;
77135;Laerm;48586;50.122;18.972;2023-07-13T05:07:37;45.40;38.34;58.54;;
77135;Laerm;48586;50.122;18.972;2023-07-13T05:09:41;48.72;40.89;60.75;;
77135;Laerm;48586;50.122;18.972;2023-07-13T05:11:45;48.32;39.61;62.38;;
77135;Laerm;48586;50.122;18.972;2023-07-13T05:13:50;47.65;37.59;63.27;;
77135;Laerm;48586;50.122;18.972;2023-07-13T05:16:01;44.53;36.50;51.32;;
77135;Laerm;48586;50.122;18.972;2023-07-13T05:18:06;51.45;38.00;61.56;;
77135;Laerm;48586;50.122;18.972;2023-07-13T05:20:11;48.24;40.39;55.37;;
77135;Laerm;48586;50.122;18.972;2023-07-13T05:22:16;45.71;39.23;54.64;;
77135;Laerm;48586;50.122;18.972;2023-07-13T05:24:20;47.42;37.38;56.75;;
77135;Laerm;48586;50.122;18.972;2023-07-13T05:26:25;49.12;37.45;57.03;;
77135;Laerm;48586;50.122;18.972;2023-07-13T05:28:30;46.26;36.44;54.75;;
77135;Laerm;48586;50.122;18.972;2023-07-13T05:30:32;49.01;41.72;58.36;;
77135;Laerm;48586;50.122;18.972;2023-07-13T05:32:40;48.50;37.52;54.85;;
77135;Laerm;48586;50.122;18.972;2023-07-13T05:34:44;50.84;41.73;74.53;;
77135;Laerm;48586;50.122;18.972;2023-07-13T05:36:48;47.31;38.24;58.28;;
77135;Laerm;48586;50.122;18.972;2023-07-13T05:38:53;47.41;38.33;65.94;;
77135;Laerm;48586;50.122;18.972;2023-07-13T05:40:58;48.90;39.06;65.04;;
77135;Laerm;48586;50.122;18.972;2023-07-13T05:43:03;46.59;36.84;55.22;;
77135;Laerm;48586;50.122;18.972;2023-07-13T05:45:09;48.07;37.13;55.25;;
77135;Laerm;48586;50.122;18.972;2023-07-13T05:47:13;49.47;40.04;73.88;;
77135;Laerm;48586;50.122;18.972;2023-07-13T05:49:21;49.35;40.94;65.87;;
77135;Laerm;48586;50.122;18.972;2023-07-13T05:51:26;48.07;39.94;57.11;;
77135;Laerm;48586;50.122;18.972;2023-07-13T05:53:31;47.41;41.07;56.17;;
77135;Laerm;48586;50.122;18.972;2023-07-13T05:55:35;53.19;42.16;70.72;;
77135;Laerm;48586;50.122;18.972;2023-07-13T05:57:40;49.10;39.62;60.50;;
77135;Laerm;48586;50.122;18.972;2023-07-13T05:59:44;48.96;38.52;60.73;;
77135;Laerm;48586;50.122;18.972;2023-07-13T06:01:49;47.22;38.47;61.18;;
77135;Laerm;48586;50.122;18.972;2023-07-13T06:03:54;47.09;37.80;62.59;;
77135;Laerm;48586;50.122;18.972;2023-07-13T06:06:00;47.55;37.63;61.28;;
77135;Laerm;48586;50.122;18.972;2023-07-13T06:08:06;47.89;36.69;62.74;;
77135;Laerm;48586;50.122;18.972;2023-07-13T06:10:12;47.57;40.99;56.69;;
77135;Laerm;48586;50.122;18.972;2023-07-13T06:12:16;45.02;37.66;55.41;;
77135;Laerm;48586;50.122;18.972;2023-07-13T06:14:19;47.22;38.35;55.40;;
77135;Laerm;48586;50.122;18.972;2023-07-13T06:16:25;49.05;41.74;55.07;;
77135;Laerm;48586;50.122;18.972;2023-07-13T06:18:29;49.35;40.34;68.38;;
77135;Laerm;48586;50.122;18.972;2023-07-13T06:20:34;48.65;40.93;57.78;;
77135;Laerm;48586;50.122;18.972;2023-07-13T06:22:42;47.39;37.42;56.18;;
77135;Laerm;48586;50.122;18.972;2023-07-13T06:24:46;46.19;36.33;55.62;;
77135;Laerm;48586;50.122;18.972;2023-07-13T06:26:51;47.94;37.18;60.75;;
77135;Laerm;48586;50.122;18.972;2023-07-13T06:28:56;47.49;38.04;71.88;;
77135;Laerm;48586;50.122;18.972;2023-07-13T06:31:00;47.85;41.01;57.24;;
77135;Laerm;48586;50.122;18.972;2023-07-13T06:33:04;47.06;37.85;57.99;;
77135;Laerm;48586;50.122;18.972;2023-07-13T06:35:10;44.90;37.03;53.02;;
77135;Laerm;48586;50.122;18.972;2023-07-13T06:37:14;49.41;36.23;56.82;;
77135;Laerm;48586;50.122;18.972;2023-07-13T06:39:21;48.65;40.81;54.33;;
77135;Laerm;48586;50.122;18.972;2023-07-13T06:41:26;46.81;40.54;60.40;;
77135;Laerm;48586;50.122;18.972;2023-07-13T06:43:33;48.54;36.83;56.14;;
77135;Laerm;48586;50.122;18.972;2023-07-13T06:45:39;47.06;39.06;55.15;;
77135;Laerm;48586;50.122;18.972;2023-07-13T06:47:44;48.57;38.34;57.60;;
77135;Laerm;48586;50.122;18.972;2023-07-13T06:49:49;49.68;39.85;59.35;;
77135;Laerm;48586;50.122;18.972;2023-07-13T06:51:53;49.25;38.68;57.06;;
77135;Laerm;48586;50.122;18.972;2023-07-13T06:53:58;49.53;39.42;60.04;;
77135;Laerm;48586;50.122;18.972;2023-07-13T06:56:05;47.28;39.18;59.19;;
77135;Laerm;48586;50.122;18.972;2023-07-13T06:58:10;47.77;39.81;61.63;;
77135;Laerm;48586;50.122;18.972;2023-07-13T07:00:16;49.00;36.97;58.78;;
77135;Laerm;48586;50.122;18.972;2023-07-13T07:02:21;47.64;37.00;55.31;;
77135;Laerm;48586;50.122;18.972;2023-07-13T07:04:26;47.84;40.00;55.95;;
77135;Laerm;48586;50.122;18.972;2023-07-13T07:06:32;47.56;36.84;55.24;;
77135;Laerm;48586;50.122;18.972;2023-07-13T07:08:36;48.49;39.60;56.89;;
77135;Laerm;48586;50.122;18.972;2023-07-13T07:10:40;48.37;41.28;55.24;;
77135;Laerm;48586;50.122;18.972;2023-07-13T07:12:52;49.03;41.38;61.29;;
77135;Laerm;48586;50.122;18.972;2023-07-13T07:14:54;48.87;39.14;56.42;;
77135;Laerm;48586;50.122;18.972;2023-07-13T07:17:00;46.20;38.58;54.00;;
77135;Laerm;48586;50.122;18.972;2023-07-13T07:19:05;45.77;38.89;54.68;;
77135;Laerm;48586;50.122;18.972;2023-07-13T07:21:10;47.50;39.53;54.39;;
77135;Laerm;48586;50.122;18.972;2023-07-13T07:23:14;51.81;41.98;62.69;;
77135;Laerm;48586;50.122;18.972;2023-07-13T07:25:20;50.18;42.35;61.41;;
77135;Laerm;48586;50.122;18.972;2023-07-13T07:27:25;47.92;39.17;55.35;;
77135;Laerm;48586;50.122;18.972;2023-07-13T07:29:33;47.79;37.38;70.50;;
77135;Laerm;48586;50.122;18.972;2023-07-13T07:31:39;47.35;38.55;60.07;;
77135;Laerm;48586;50.122;18.972;2023-07-13T07:33:45;49.78;39.50;64.75;;
77135;Laerm;48586;50.122;18.972;2023-07-13T07:35:51;47.68;38.95;57.93;;
77135;Laerm;48586;50.122;18.972;2023-07-13T07:37:58;52.82;38.94;71.59;;
77135;Laerm;48586;50.122;18.972;2023-07-13T07:40:02;50.44;38.73;60.83;;
77135;Laerm;48586;50.122;18.972;2023-07-13T07:42:08;47.09;38.73;66.13;;
77135;Laerm;48586;50.122;18.972;2023-07-13T07:44:14;48.47;37.84;64.03;;
77135;Laerm;48586;50.122;18.972;2023-07-13T07:46:22;51.25;41.82;70.64;;
77135;Laerm;48586;50.122;18.972;2023-07-13T07:48:27;49.38;41.85;56.04;;
77135;Laerm;48586;50.122;18.972;2023-07-13T07:50:33;48.43;41.94;55.73;;
77135;Laerm;48586;50.122;18.972;2023-07-13T07:52:38;48.00;40.15;57.56;;
77135;Laerm;48586;50.122;18.972;2023-07-13T07:54:43;47.26;39.85;57.50;;
77135;Laerm;48586;50.122;18.972;2023-07-13T07:56:49;46.82;37.29;53.72;;
77135;Laerm;48586;50.122;18.972;2023-07-13T07:58:54;48.06;40.19;53.99;;
77135;Laerm;48586;50.122;18.972;2023-07-13T08:01:03;49.02;42.38;56.92;;
77135;Laerm;48586;50.122;18.972;2023-07-13T08:03:12;46.59;36.88;56.49;;
77135;Laerm;48586;50.122;18.972;2023-07-13T08:05:17;48.88;38.24;56.84;;
77135;Laerm;48586;50.122;18.972;2023-07-13T08:07:23;46.89;39.38;55.35;;
77135;Laerm;48586;50.122;18.972;2023-07-13T08:09:29;48.79;37.81;61.49;;
77135;Laerm;48586;50.122;18.972;2023-07-13T08:11:34;48.50;37.36;55.26;;
77135;Laerm;48586;50.122;18.972;2023-07-13T08:13:41;46.09;37.50;55.13;;
77135;Laerm;48586;50.122;18.972;2023-07-13T08:15:46;47.08;37.12;55.29;;
77135;Laerm;48586;50.122;18.972;2023-07-13T08:17:52;47.88;38.51;56.28;;
77135;Laerm;48586;50.122;18.972;2023-07-13T08:20:00;50.54;43.96;57.67;;
77135;Laerm;48586;50.122;18.972;2023-07-13T08:22:05;48.44;40.11;60.17;;
77135;Laerm;48586;50.122;18.972;2023-07-13T08:24:10;45.54;38.11;56.73;;
77135;Laerm;48586;50.122;18.972;2023-07-13T08:26:15;48.88;41.69;56.63;;
77135;Laerm;48586;50.122;18.972;2023-07-13T08:28:20;48.75;41.72;57.51;;
77135;Laerm;48586;50.122;18.972;2023-07-13T08:30:25;48.81;37.72;59.63;;
77135;Laerm;48586;50.122;18.972;2023-07-13T08:32:33;47.26;37.29;60.31;;
77135;Laerm;48586;50.122;18.972;2023-07-13T08:34:38;52.04;42.53;61.75;;
77135;Laerm;48586;50.122;18.972;2023-07-13T08:36:46;49.04;38.76;61.65;;
77135;Laerm;48586;50.122;18.972;2023-07-13T08:38:50;46.42;36.75;61.51;;
77135;Laerm;48586;50.122;18.972;2023-07-13T08:40:57;49.94;39.76;66.97;;
77135;Laerm;48586;50.122;18.972;2023-07-13T08:43:01;47.39;36.41;56.92;;
77135;Laerm;48586;50.122;18.972;2023-07-13T08:45:19;47.77;37.12;58.15;;
77135;Laerm;48586;50.122;18.972;2023-07-13T08:47:29;47.94;37.63;63.15;;
77135;Laerm;48586;50.122;18.972;2023-07-13T08:49:34;48.73;41.52;56.77;;
77135;Laerm;48586;50.122;18.972;2023-07-13T08:51:47;49.33;39.31;55.05;;
77135;Laerm;48586;50.122;18.972;2023-07-13T08:53:59;47.47;41.47;61.15;;
77135;Laerm;48586;50.122;18.972;2023-07-13T08:56:17;47.63;40.26;54.86;;
77135;Laerm;48586;50.122;18.972;2023-07-13T08:58:25;49.54;37.65;68.91;;
77135;Laerm;48586;50.122;18.972;2023-07-13T09:00:41;45.86;39.29;54.60;;
77135;Laerm;48586;50.122;18.972;2023-07-13T09:02:55;48.74;37.55;60.73;;
77135;Laerm;48586;50.122;18.972;2023-07-13T09:05:08;48.42;37.65;60.28;;
77135;Laerm;48586;50.122;18.972;2023-07-13T09:07:30;48.51;38.18;57.98;;
77135;Laerm;48586;50.122;18.972;2023-07-13T09:09:52;49.94;41.53;57.19;;
77135;Laerm;48586;50.122;18.972;2023-07-13T09:12:13;48.33;39.19;55.42;;
77135;Laerm;48586;50.122;18.972;2023-07-13T09:14:42;46.83;37.97;59.77;;
77135;Laerm;48586;50.122;18.972;2023-07-13T09:16:50;51.68;39.81;58.24;;
77135;Laerm;48586;50.122;18.972;2023-07-13T09:19:01;48.23;39.25;55.18;;
77135;Laerm;48586;50.122;18.972;2023-07-13T09:21:14;48.72;36.63;59.76;;
77135;Laerm;48586;50.122;18.972;2023-07-13T09:23:25;51.94;39.02;68.58;;
77135;Laerm;48586;50.122;18.972;2023-07-13T09:25:33;51.91;40.75;70.05;;
77135;Laerm;48586;50.122;18.972;2023-07-13T09:27:42;47.87;38.70;56.09;;
77135;Laerm;48586;50.122;18.972;2023-07-13T09:29:51;49.37;39.05;59.10;;
77135;Laerm;48586;50.122;18.972;2023-07-13T09:32:02;47.57;39.37;54.76;;
77135;Laerm;48586;50.122;18.972;2023-07-13T09:34:11;48.39;40.55;56.95;;
77135;Laerm;48586;50.122;18.972;2023-07-13T09:36:21;46.45;40.08;58.30;;
77135;Laerm;48586;50.122;18.972;2023-07-13T09:38:29;49.03;39.25;55.83;;
77135;Laerm;48586;50.122;18.972;2023-07-13T09:40:49;50.14;41.70;66.50;;
77135;Laerm;48586;50.122;18.972;2023-07-13T09:42:58;49.20;40.91;61.93;;
77135;Laerm;48586;50.122;18.972;2023-07-13T09:45:04;49.04;39.95;57.78;;
77135;Laerm;48586;50.122;18.972;2023-07-13T09:47:16;47.07;40.61;64.34;;
77135;Laerm;48586;50.122;18.972;2023-07-13T09:49:24;50.14;43.10;60.28;;
77135;Laerm;48586;50.122;18.972;2023-07-13T09:51:28;48.79;41.34;58.35;;
77135;Laerm;48586;50.122;18.972;2023-07-13T09:53:36;53.48;44.38;66.85;;
77135;Laerm;48586;50.122;18.972;2023-07-13T09:55:42;51.32;44.20;63.18;;
77135;Laerm;48586;50.122;18.972;2023-07-13T09:57:47;52.34;45.99;62.20;;
77135;Laerm;48586;50.122;18.972;2023-07-13T09:59:56;53.29;46.18;62.61;;
77135;Laerm;48586;50.122;18.972;2023-07-13T10:02:01;70.21;49.29;86.45;;
77135;Laerm;48586;50.122;18.972;2023-07-13T10:04:11;53.55;45.54;61.39;;
77135;Laerm;48586;50.122;18.972;2023-07-13T10:06:20;53.50;44.21;63.71;;
77135;Laerm;48586;50.122;18.972;2023-07-13T10:08:26;53.57;46.46;64.68;;
77135;Laerm;48586;50.122;18.972;2023-07-13T10:10:34;52.88;46.00;70.25;;
77135;Laerm;48586;50.122;18.972;2023-07-13T10:12:39;53.15;43.94;67.73;;
77135;Laerm;48586;50.122;18.972;2023-07-13T10:14:44;54.00;46.87;64.87;;
77135;Laerm;48586;50.122;18.972;2023-07-13T10:16:57;57.17;50.65;70.96;;
77135;Laerm;48586;50.122;18.972;2023-07-13T10:19:11;57.94;52.10;75.11;;
77135;Laerm;48586;50.122;18.972;2023-07-13T10:21:18;54.60;47.59;69.46;;
77135;Laerm;48586;50.122;18.972;2023-07-13T10:23:30;55.96;49.96;67.31;;
77135;Laerm;48586;50.122;18.972;2023-07-13T10:25:41;55.08;48.75;69.59;;
77135;Laerm;48586;50.122;18.972;2023-07-13T10:27:50;54.04;47.85;68.03;;
77135;Laerm;48586;50.122;18.972;2023-07-13T10:30:04;54.96;49.38;72.68;;
77135;Laerm;48586;50.122;18.972;2023-07-13T10:32:15;55.12;48.69;70.26;;
77135;Laerm;48586;50.122;18.972;2023-07-13T10:34:19;55.39;48.85;74.26;;
77135;Laerm;48586;50.122;18.972;2023-07-13T10:36:32;55.27;49.57;80.52;;
77135;Laerm;48586;50.122;18.972;2023-07-13T10:38:39;56.58;51.72;73.02;;
77135;Laerm;48586;50.122;18.972;2023-07-13T10:40:56;57.88;53.21;73.95;;
77135;Laerm;48586;50.122;18.972;2023-07-13T10:43:14;58.06;53.71;73.04;;
77135;Laerm;48586;50.122;18.972;2023-07-13T10:45:23;58.91;54.62;67.51;;
77135;Laerm;48586;50.122;18.972;2023-07-13T10:47:28;55.95;48.61;69.94;;
77135;Laerm;48586;50.122;18.972;2023-07-13T10:49:35;56.93;49.54;71.63;;
77135;Laerm;48586;50.122;18.972;2023-07-13T10:51:40;54.58;48.03;68.26;;
77135;Laerm;48586;50.122;18.972;2023-07-13T10:53:45;51.99;45.61;69.09;;
77135;Laerm;48586;50.122;18.972;2023-07-13T10:56:00;55.57;47.17;70.78;;
77135;Laerm;48586;50.122;18.972;2023-07-13T10:58:19;53.00;46.33;69.56;;
77135;Laerm;48586;50.122;18.972;2023-07-13T11:00:23;54.44;47.28;62.37;;
77135;Laerm;48586;50.122;18.972;2023-07-13T11:02:30;53.68;45.23;68.94;;
77135;Laerm;48586;50.122;18.972;2023-07-13T11:04:42;53.48;43.48;61.67;;
77135;Laerm;48586;50.122;18.972;2023-07-13T11:06:52;53.24;46.52;60.14;;
77135;Laerm;48586;50.122;18.972;2023-07-13T11:09:00;52.32;43.95;58.04;;
77135;Laerm;48586;50.122;18.972;2023-07-13T11:11:36;54.80;45.76;62.20;;
77135;Laerm;48586;50.122;18.972;2023-07-13T11:13:58;52.86;43.20;59.17;;
77135;Laerm;48586;50.122;18.972;2023-07-13T11:16:13;52.82;42.91;59.43;;
77135;Laerm;48586;50.122;18.972;2023-07-13T11:18:24;51.51;43.29;59.58;;
77135;Laerm;48586;50.122;18.972;2023-07-13T11:20:37;49.32;41.88;57.90;;
77135;Laerm;48586;50.122;18.972;2023-07-13T11:22:44;53.46;44.42;62.18;;
77135;Laerm;48586;50.122;18.972;2023-07-13T11:24:54;52.68;44.88;72.32;;
77135;Laerm;48586;50.122;18.972;2023-07-13T11:27:23;54.01;47.55;64.55;;
77135;Laerm;48586;50.122;18.972;2023-07-13T11:29:37;51.40;43.56;64.76;;
77135;Laerm;48586;50.122;18.972;2023-07-13T11:31:51;54.30;44.60;62.69;;
77135;Laerm;48586;50.122;18.972;2023-07-13T11:33:58;54.73;46.01;69.97;;
77135;Laerm;48586;50.122;18.972;2023-07-13T11:36:06;54.92;48.33;65.81;;
77135;Laerm;48586;50.122;18.972;2023-07-13T11:38:19;52.25;44.56;63.56;;
77135;Laerm;48586;50.122;18.972;2023-07-13T11:40:28;53.31;42.99;61.11;;
77135;Laerm;48586;50.122;18.972;2023-07-13T11:42:36;52.60;42.25;68.50;;